Time;durP1;ratioP1;P1;durP2;ratioP2;P2;SDS_P1;SDS_P2;PMS_P1;PMS_P2;Temp;Humidity;BMP_temperature;BMP_pressure;BME280_temperature;BME280_humidity;BME280_pressure;Samples;Min_cycle;Max_cycle;Signal;HPM_P1;HPM_P2
2020/12/30 00:00:14;;;;;;;62.88;25.90;;;9.00;84.90;;;;;;5115462;28;20061;-72
2020/12/30 00:02:40;;;;;;;59.42;27.42;;;9.00;84.90;;;;;;5116583;28;20027;-71
2020/12/30 00:05:08;;;;;;;53.75;25.65;;;9.00;85.00;;;;;;5116539;28;20360;-72
2020/12/30 00:07:35;;;;;;;56.15;24.88;;;9.00;85.10;;;;;;5116543;28;20058;-72
2020/12/30 00:10:01;;;;;;;54.70;24.75;;;9.00;85.20;;;;;;5115261;28;20036;-72
2020/12/30 00:12:29;;;;;;;55.33;25.67;;;9.00;85.10;;;;;;5116131;28;20031;-72
2020/12/30 00:14:58;;;;;;;54.72;24.67;;;9.00;85.10;;;;;;5116478;28;20105;-72
2020/12/30 00:17:24;;;;;;;54.75;22.58;;;9.00;85.10;;;;;;5115846;28;20025;-71
2020/12/30 00:19:50;;;;;;;55.40;22.85;;;9.00;85.10;;;;;;5116526;28;20020;-71
2020/12/30 00:22:17;;;;;;;45.85;21.88;;;9.10;85.20;;;;;;5114962;28;20104;-72
2020/12/30 00:24:42;;;;;;;58.60;21.55;;;9.10;85.20;;;;;;5116092;28;20034;-72
2020/12/30 00:27:09;;;;;;;56.08;23.58;;;9.10;85.00;;;;;;5116215;28;20023;-72
2020/12/30 00:29:35;;;;;;;57.33;21.80;;;9.10;85.00;;;;;;5114659;28;20031;-72
2020/12/30 00:32:01;;;;;;;55.60;23.15;;;9.10;85.00;;;;;;5115769;28;20036;-72
2020/12/30 00:34:26;;;;;;;39.38;20.25;;;9.10;85.00;;;;;;5116205;28;20468;-72
2020/12/30 00:36:52;;;;;;;41.10;19.20;;;9.10;85.30;;;;;;5115669;28;20533;-72
2020/12/30 00:39:18;;;;;;;55.00;20.80;;;9.10;85.30;;;;;;5115779;28;20376;-72
2020/12/30 00:41:43;;;;;;;39.67;17.92;;;9.20;85.40;;;;;;5116177;28;20035;-71
2020/12/30 00:44:09;;;;;;;32.03;17.98;;;9.20;84.90;;;;;;5115855;28;20032;-72
2020/12/30 00:46:35;;;;;;;149.23;25.58;;;9.20;85.00;;;;;;5115573;28;20028;-72
2020/12/30 00:49:01;;;;;;;74.63;19.50;;;9.30;85.00;;;;;;5115640;28;20035;-71
2020/12/30 00:51:27;;;;;;;59.92;19.25;;;9.20;84.30;;;;;;5115707;28;20044;-72
2020/12/30 00:53:52;;;;;;;244.23;28.10;;;9.30;84.20;;;;;;5115376;28;20027;-71
2020/12/30 00:56:18;;;;;;;54.22;18.10;;;9.20;83.90;;;;;;5115619;28;20027;-72
2020/12/30 00:58:44;;;;;;;56.08;18.15;;;9.10;83.70;;;;;;5115968;28;20458;-71
2020/12/30 01:01:09;;;;;;;177.82;24.10;;;9.10;83.60;;;;;;5115494;28;20024;-71
2020/12/30 01:03:36;;;;;;;205.43;23.98;;;9.00;83.50;;;;;;5115365;28;20039;-71
2020/12/30 01:06:05;;;;;;;106.70;20.02;;;9.00;83.30;;;;;;5115326;28;20019;-70
2020/12/30 01:08:31;;;;;;;279.48;31.73;;;8.90;82.90;;;;;;5115307;28;20081;-72
2020/12/30 01:10:57;;;;;;;301.58;31.17;;;8.80;82.90;;;;;;5115232;28;20044;-72
2020/12/30 01:13:23;;;;;;;264.02;28.20;;;8.70;82.80;;;;;;5114958;28;20068;-72
2020/12/30 01:15:48;;;;;;;280.92;31.67;;;8.60;82.80;;;;;;5111347;28;20032;-72
2020/12/30 01:18:14;;;;;;;142.07;24.00;;;8.60;82.80;;;;;;5093476;28;20047;-72
2020/12/30 01:20:40;;;;;;;338.83;33.35;;;8.50;82.80;;;;;;5093315;28;20046;-72
2020/12/30 01:23:06;;;;;;;258.25;28.85;;;8.40;82.70;;;;;;5094972;28;20059;-72
2020/12/30 01:25:31;;;;;;;99.80;20.27;;;8.30;82.80;;;;;;5094552;28;20020;-72
2020/12/30 01:27:57;;;;;;;275.08;28.23;;;8.20;83.10;;;;;;5094464;28;20032;-71
2020/12/30 01:30:23;;;;;;;278.08;32.72;;;8.20;83.20;;;;;;5094298;28;20399;-73
2020/12/30 01:32:49;;;;;;;199.02;25.15;;;8.10;83.40;;;;;;5094255;28;20226;-71
2020/12/30 01:35:15;;;;;;;116.72;22.02;;;8.10;83.70;;;;;;5093251;28;20560;-72
2020/12/30 01:37:41;;;;;;;192.07;24.90;;;8.10;84.10;;;;;;5094319;28;20040;-72
2020/12/30 01:40:07;;;;;;;206.30;25.77;;;8.10;84.30;;;;;;5094347;28;20028;-72
2020/12/30 01:42:48;;;;;;;117.32;21.50;;;8.10;84.30;;;;;;5092954;28;20027;-71
2020/12/30 01:45:14;;;;;;;100.50;19.70;;;8.10;84.30;;;;;;5092874;28;20024;-71
2020/12/30 01:47:41;;;;;;;291.67;29.17;;;8.10;84.20;;;;;;5091093;28;20032;-71
2020/12/30 01:50:07;;;;;;;60.63;18.98;;;8.10;84.40;;;;;;5094035;28;20069;-72
2020/12/30 01:52:33;;;;;;;226.45;27.33;;;8.10;84.60;;;;;;5093849;28;20452;-72
2020/12/30 01:55:01;;;;;;;79.65;19.85;;;8.10;84.80;;;;;;5094037;28;20107;-72
2020/12/30 01:57:28;;;;;;;131.50;23.27;;;8.10;84.90;;;;;;5094171;28;20028;-72
2020/12/30 01:59:54;;;;;;;116.28;22.50;;;8.10;85.00;;;;;;5093766;28;20133;-72
2020/12/30 02:02:23;;;;;;;175.70;26.25;;;8.20;84.80;;;;;;5093859;28;20436;-71
2020/12/30 02:04:52;;;;;;;177.60;25.75;;;8.20;84.90;;;;;;5094021;28;20031;-71
2020/12/30 02:07:19;;;;;;;76.28;20.88;;;8.20;85.00;;;;;;5093891;28;20042;-70
2020/12/30 02:09:45;;;;;;;52.95;19.38;;;8.20;85.00;;;;;;5092458;28;20028;-72
2020/12/30 02:12:12;;;;;;;67.25;19.42;;;8.20;85.40;;;;;;5093562;28;20114;-72
2020/12/30 02:14:38;;;;;;;58.63;19.77;;;8.30;85.60;;;;;;5093300;28;20032;-72
2020/12/30 02:17:04;;;;;;;54.38;19.02;;;8.40;85.30;;;;;;5093528;28;20032;-71
2020/12/30 02:19:30;;;;;;;210.38;28.88;;;8.40;85.20;;;;;;5093534;28;20448;-72
2020/12/30 02:25:17;;;;;;;71.63;20.60;;;8.40;84.60;;;;;;5114050;28;20026;-72
2020/12/30 02:27:43;;;;;;;58.88;18.70;;;8.40;84.30;;;;;;5113944;28;20027;-71
2020/12/30 02:30:08;;;;;;;58.60;19.63;;;8.40;84.50;;;;;;5113742;28;20037;-71
2020/12/30 02:32:34;;;;;;;44.80;19.98;;;8.40;84.50;;;;;;5112088;28;20476;-73
2020/12/30 02:35:00;;;;;;;51.70;19.23;;;8.50;84.50;;;;;;5114161;28;20024;-72
2020/12/30 02:37:25;;;;;;;47.65;21.05;;;8.50;84.70;;;;;;5113889;28;20024;-73
2020/12/30 02:39:51;;;;;;;39.92;18.90;;;8.60;84.60;;;;;;5114088;28;20055;-71
2020/12/30 02:42:17;;;;;;;48.72;20.77;;;8.60;84.50;;;;;;5112471;28;20418;-71
2020/12/30 02:44:43;;;;;;;41.67;20.63;;;8.70;84.40;;;;;;5113324;28;20024;-71
2020/12/30 02:47:08;;;;;;;64.57;18.88;;;8.70;84.10;;;;;;5113504;28;20024;-71
2020/12/30 02:49:34;;;;;;;174.98;25.20;;;8.70;83.70;;;;;;5112460;28;20023;-71
2020/12/30 02:51:59;;;;;;;140.05;22.63;;;8.70;83.00;;;;;;5112335;28;20059;-71
2020/12/30 02:54:25;;;;;;;273.38;31.35;;;8.60;82.50;;;;;;5113704;28;20031;-71
2020/12/30 02:56:51;;;;;;;135.65;22.98;;;8.50;82.00;;;;;;5114067;28;20033;-71
2020/12/30 02:59:16;;;;;;;173.43;24.75;;;8.40;81.90;;;;;;5113416;28;20100;-71
2020/12/30 03:01:43;;;;;;;159.80;23.65;;;8.20;82.40;;;;;;5111528;28;20032;-72
2020/12/30 03:04:09;;;;;;;148.95;24.60;;;8.20;82.60;;;;;;5113067;28;20019;-71
2020/12/30 03:06:35;;;;;;;290.30;31.25;;;8.10;82.50;;;;;;5113292;28;20084;-71
2020/12/30 03:09:03;;;;;;;134.25;22.75;;;8.00;82.60;;;;;;5112909;28;20036;-72
2020/12/30 03:11:28;;;;;;;254.40;28.75;;;7.90;82.80;;;;;;5113332;28;20088;-73
2020/12/30 03:13:54;;;;;;;296.25;33.40;;;7.90;82.60;;;;;;5113255;28;20028;-72
2020/12/30 03:16:20;;;;;;;259.38;29.25;;;7.80;82.70;;;;;;5113292;28;20028;-72
2020/12/30 03:18:45;;;;;;;364.33;32.97;;;7.70;82.80;;;;;;5113027;28;20032;-73
2020/12/30 03:21:11;;;;;;;303.00;33.60;;;7.70;82.90;;;;;;5113446;28;20024;-72
2020/12/30 03:23:37;;;;;;;96.40;20.75;;;7.60;83.00;;;;;;5111971;28;20031;-71
2020/12/30 03:26:03;;;;;;;266.55;28.45;;;7.50;83.30;;;;;;5113080;28;20131;-71
2020/12/30 03:28:29;;;;;;;184.63;23.45;;;7.50;83.70;;;;;;5113531;28;20023;-74
2020/12/30 03:30:54;;;;;;;146.77;23.33;;;7.50;83.70;;;;;;5116737;28;20143;-71
2020/12/30 03:33:20;;;;;;;211.45;28.10;;;7.50;84.10;;;;;;5117243;28;20043;-71
2020/12/30 03:35:45;;;;;;;233.82;25.70;;;7.50;84.10;;;;;;5117338;28;20447;-72
2020/12/30 03:38:11;;;;;;;146.93;22.00;;;7.50;84.10;;;;;;5115772;28;20031;-72
2020/12/30 03:40:37;;;;;;;118.38;19.92;;;7.50;84.20;;;;;;5116727;28;20027;-71
2020/12/30 03:43:03;;;;;;;213.65;24.27;;;7.50;84.10;;;;;;5115735;28;20042;-72
2020/12/30 03:45:28;;;;;;;331.63;31.10;;;7.50;84.00;;;;;;5115673;28;20031;-72
2020/12/30 03:47:54;;;;;;;191.90;22.83;;;7.40;83.90;;;;;;5116548;28;20072;-72
2020/12/30 03:50:20;;;;;;;361.00;33.10;;;7.40;84.10;;;;;;5116433;28;20027;-72
2020/12/30 03:52:45;;;;;;;174.73;22.42;;;7.40;84.10;;;;;;5116647;28;20043;-71
2020/12/30 03:55:11;;;;;;;146.27;20.98;;;7.30;84.00;;;;;;5115498;28;20031;-71
2020/12/30 03:57:37;;;;;;;178.88;22.80;;;7.30;84.10;;;;;;5116771;28;20028;-71
2020/12/30 04:00:03;;;;;;;218.70;25.55;;;7.30;84.40;;;;;;5115875;28;20406;-72
2020/12/30 04:02:29;;;;;;;192.35;23.73;;;7.30;84.50;;;;;;5116523;28;20035;-71
2020/12/30 04:04:55;;;;;;;158.45;21.88;;;7.30;84.50;;;;;;5116784;28;20028;-72
2020/12/30 04:07:20;;;;;;;133.73;20.40;;;7.30;84.50;;;;;;5116253;28;20102;-71
2020/12/30 04:09:46;;;;;;;205.75;23.90;;;7.20;84.70;;;;;;5114995;28;20031;-71
2020/12/30 04:12:11;;;;;;;130.05;20.05;;;7.30;85.00;;;;;;5115097;28;20067;-71
2020/12/30 04:14:37;;;;;;;259.77;27.02;;;7.30;84.70;;;;;;5115013;28;20023;-72
2020/12/30 04:17:03;;;;;;;255.23;26.70;;;7.30;84.90;;;;;;5116666;28;20456;-72
2020/12/30 04:19:28;;;;;;;160.40;21.83;;;7.30;84.90;;;;;;5116289;28;20486;-72
2020/12/30 04:21:54;;;;;;;245.13;25.13;;;7.30;85.10;;;;;;5114778;28;20042;-73
2020/12/30 04:24:20;;;;;;;77.72;18.55;;;7.30;85.60;;;;;;5116195;28;20024;-71
2020/12/30 04:26:45;;;;;;;126.20;20.08;;;7.30;85.60;;;;;;5115921;28;20096;-71
2020/12/30 04:29:11;;;;;;;293.90;35.10;;;7.40;85.60;;;;;;5116019;28;20026;-71
2020/12/30 04:31:37;;;;;;;137.35;20.88;;;7.40;85.40;;;;;;5115844;28;20034;-72
2020/12/30 04:34:04;;;;;;;113.57;19.33;;;7.50;85.20;;;;;;5116199;28;20050;-72
2020/12/30 04:36:30;;;;;;;208.13;24.30;;;7.50;85.20;;;;;;5115536;28;20106;-72
2020/12/30 04:38:56;;;;;;;109.72;18.90;;;7.50;84.70;;;;;;5115805;28;20463;-72
2020/12/30 04:41:34;;;;;;;252.50;26.92;;;7.40;84.70;;;;;;5115065;28;20032;-72
2020/12/30 04:44:01;;;;;;;168.25;21.55;;;7.40;84.60;;;;;;5115830;28;20027;-71
2020/12/30 04:46:27;;;;;;;404.45;35.55;;;7.40;84.00;;;;;;5114396;28;20027;-72
2020/12/30 04:48:56;;;;;;;169.32;22.23;;;7.40;84.10;;;;;;5115909;28;20034;-72
2020/12/30 04:51:23;;;;;;;94.10;18.27;;;7.30;84.40;;;;;;5115332;28;20036;-72
2020/12/30 04:53:50;;;;;;;211.77;24.73;;;7.40;84.90;;;;;;5115118;28;20442;-72
2020/12/30 04:56:16;;;;;;;145.73;20.73;;;7.40;84.70;;;;;;5114404;28;20298;-72
2020/12/30 04:58:43;;;;;;;309.33;30.13;;;7.40;84.50;;;;;;5115338;28;20080;-72
2020/12/30 05:01:11;;;;;;;126.57;21.38;;;7.40;84.30;;;;;;5115459;28;20036;-72
2020/12/30 05:03:45;;;;;;;230.80;27.52;;;7.40;84.10;;;;;;5113799;28;20055;-72
2020/12/30 05:06:14;;;;;;;159.83;23.20;;;7.40;84.10;;;;;;5114946;28;20118;-72
2020/12/30 05:08:40;;;;;;;176.38;23.92;;;7.40;83.80;;;;;;5115195;28;20031;-72
2020/12/30 05:11:06;;;;;;;255.77;28.65;;;7.30;83.60;;;;;;5115183;28;20028;-72
2020/12/30 05:13:32;;;;;;;266.65;29.48;;;7.20;83.40;;;;;;5114916;28;20019;-71
2020/12/30 05:15:58;;;;;;;410.60;38.10;;;7.20;83.60;;;;;;5114891;28;20089;-72
2020/12/30 05:18:24;;;;;;;174.05;23.40;;;7.10;84.00;;;;;;5114979;28;20112;-72
2020/12/30 05:20:49;;;;;;;113.53;21.13;;;7.10;84.30;;;;;;5115017;28;20080;-73
2020/12/30 05:23:16;;;;;;;267.38;29.90;;;7.10;84.60;;;;;;5113621;28;20030;-72
2020/12/30 05:25:44;;;;;;;193.57;26.30;;;7.20;84.60;;;;;;5111701;28;20047;-71
2020/12/30 05:28:11;;;;;;;77.38;20.08;;;7.20;84.90;;;;;;5104263;28;20052;-72
2020/12/30 05:30:38;;;;;;;91.10;21.35;;;7.20;84.90;;;;;;5101759;28;20034;-73
2020/12/30 05:33:04;;;;;;;151.65;22.25;;;7.30;85.00;;;;;;5102225;28;20119;-74
2020/12/30 05:35:31;;;;;;;62.75;17.98;;;7.30;84.90;;;;;;5104228;28;20068;-71
2020/12/30 05:37:58;;;;;;;87.82;19.92;;;7.30;85.00;;;;;;5101814;28;20016;-71
2020/12/30 05:40:26;;;;;;;239.57;26.42;;;7.40;85.30;;;;;;5102075;28;20038;-73
2020/12/30 05:42:53;;;;;;;116.80;20.15;;;7.50;85.10;;;;;;5101860;28;20012;-74
2020/12/30 05:45:23;;;;;;;202.50;25.95;;;7.50;84.50;;;;;;5101915;28;20020;-71
2020/12/30 05:47:52;;;;;;;137.88;20.58;;;7.50;84.50;;;;;;5101956;28;20111;-72
2020/12/30 05:50:25;;;;;;;157.27;23.52;;;7.60;84.20;;;;;;5109580;28;20122;-71
2020/12/30 05:52:52;;;;;;;64.07;18.17;;;7.60;84.30;;;;;;5113529;28;20028;-72
2020/12/30 05:55:26;;;;;;;91.93;18.95;;;7.60;84.50;;;;;;5096284;28;20460;-72
2020/12/30 05:57:52;;;;;;;61.40;17.00;;;7.60;84.60;;;;;;5092553;28;20031;-73
2020/12/30 06:00:17;;;;;;;248.60;26.77;;;7.70;84.60;;;;;;5093861;28;20080;-72
2020/12/30 06:02:45;;;;;;;54.95;18.63;;;7.70;84.50;;;;;;5092365;28;20028;-72
2020/12/30 06:05:24;;;;;;;47.92;18.73;;;7.80;84.60;;;;;;5093347;28;20102;-72
2020/12/30 06:07:53;;;;;;;98.43;19.70;;;7.90;84.70;;;;;;5093276;28;20024;-72
2020/12/30 06:10:22;;;;;;;127.30;22.02;;;7.90;84.40;;;;;;5093573;28;20040;-72
2020/12/30 06:12:48;;;;;;;238.52;30.73;;;8.00;84.00;;;;;;5093568;28;20024;-72
2020/12/30 06:15:15;;;;;;;168.63;24.30;;;8.00;83.60;;;;;;5093344;28;20035;-72
2020/12/30 06:18:05;;;;;;;56.63;19.27;;;8.00;83.60;;;;;;5093194;28;20049;-71
2020/12/30 06:20:41;;;;;;;66.10;17.90;;;8.00;83.60;;;;;;5093537;28;20032;-72
2020/12/30 06:23:14;;;;;;;155.60;22.52;;;8.00;84.00;;;;;;5092391;28;20024;-72
2020/12/30 06:25:47;;;;;;;138.65;25.67;;;8.10;84.10;;;;;;5093957;28;20028;-72
2020/12/30 06:28:15;;;;;;;131.38;23.80;;;8.10;83.90;;;;;;5093513;28;20024;-72
2020/12/30 06:31:02;;;;;;;107.80;20.17;;;8.20;83.60;;;;;;5093606;28;20121;-72
2020/12/30 06:33:28;;;;;;;177.90;25.13;;;8.20;84.00;;;;;;5093135;28;20048;-72
2020/12/30 06:35:55;;;;;;;127.95;22.25;;;8.30;84.20;;;;;;5093813;28;20123;-72
2020/12/30 06:38:26;;;;;;;218.88;29.98;;;8.40;84.10;;;;;;5092438;28;20478;-73
2020/12/30 06:40:55;;;;;;;195.15;28.83;;;8.40;84.00;;;;;;5092794;28;20460;-71
2020/12/30 06:43:36;;;;;;;172.35;24.92;;;8.40;83.80;;;;;;5093136;28;20032;-73
2020/12/30 06:46:02;;;;;;;160.45;25.40;;;8.40;83.90;;;;;;5091734;28;20428;-72
2020/12/30 06:48:28;;;;;;;130.30;24.55;;;8.40;83.90;;;;;;5091550;28;20020;-72
2020/12/30 06:50:53;;;;;;;172.68;27.17;;;8.40;84.00;;;;;;5092660;28;20043;-72
2020/12/30 06:53:25;;;;;;;138.63;26.92;;;8.40;83.90;;;;;;5093427;28;20028;-72
2020/12/30 06:55:51;;;;;;;88.82;23.40;;;8.40;83.90;;;;;;5092738;28;20093;-72
2020/12/30 06:58:45;;;;;;;101.40;26.17;;;8.40;83.80;;;;;;5092938;28;20020;-72
2020/12/30 07:01:21;;;;;;;97.85;27.67;;;8.40;83.90;;;;;;5091516;28;20566;-74
2020/12/30 07:03:50;;;;;;;131.30;29.40;;;8.40;83.70;;;;;;5095240;28;20134;-73
2020/12/30 07:06:45;;;;;;;94.47;28.95;;;8.30;83.80;;;;;;5096937;28;20484;-72
2020/12/30 07:09:16;;;;;;;99.45;31.63;;;8.30;84.00;;;;;;5082517;28;20036;-73
2020/12/30 07:11:53;;;;;;;87.65;32.95;;;8.30;84.10;;;;;;5096506;28;20043;-73
2020/12/30 07:14:23;;;;;;;94.18;31.65;;;8.30;84.30;;;;;;5095779;28;20076;-72
2020/12/30 07:17:00;;;;;;;104.75;36.72;;;8.30;84.60;;;;;;5095463;28;20034;-72
2020/12/30 07:19:32;;;;;;;93.05;34.38;;;8.40;85.00;;;;;;5098531;28;20020;-72
2020/12/30 07:22:06;;;;;;;116.07;37.67;;;8.40;85.00;;;;;;5105083;28;20743;-73
2020/12/30 07:24:46;;;;;;;102.40;38.28;;;8.50;84.90;;;;;;5104702;28;20024;-73
2020/12/30 07:27:14;;;;;;;111.35;37.33;;;8.50;84.70;;;;;;5103130;28;20086;-73
2020/12/30 07:29:41;;;;;;;110.60;35.03;;;8.50;84.70;;;;;;5107342;28;20019;-73
2020/12/30 07:32:32;;;;;;;85.38;32.92;;;8.50;84.70;;;;;;5108526;28;20036;-73
2020/12/30 07:35:00;;;;;;;99.45;32.95;;;8.50;84.70;;;;;;5103609;28;20050;-75
2020/12/30 07:37:25;;;;;;;87.95;30.23;;;8.50;84.80;;;;;;5106277;28;20016;-75
2020/12/30 07:39:51;;;;;;;73.93;29.77;;;8.60;84.90;;;;;;5116576;28;20050;-74
2020/12/30 07:42:19;;;;;;;70.85;29.13;;;8.60;84.90;;;;;;5106677;28;20023;-74
2020/12/30 07:44:49;;;;;;;93.10;32.30;;;8.60;84.80;;;;;;5105062;28;20032;-74
2020/12/30 07:47:17;;;;;;;86.38;33.55;;;8.70;84.90;;;;;;5103858;28;20012;-74
2020/12/30 07:49:43;;;;;;;107.65;34.38;;;8.70;84.70;;;;;;5103377;28;20016;-74
2020/12/30 07:52:10;;;;;;;78.88;32.17;;;8.70;84.80;;;;;;5104110;28;20024;-75
2020/12/30 07:54:35;;;;;;;90.78;34.00;;;8.80;84.90;;;;;;5102759;28;20513;-73
2020/12/30 07:57:08;;;;;;;82.75;32.38;;;8.80;84.80;;;;;;5106010;28;20098;-74
2020/12/30 07:59:35;;;;;;;70.75;32.33;;;8.80;85.10;;;;;;5105466;28;20455;-75
2020/12/30 08:02:11;;;;;;;74.28;32.08;;;8.90;85.30;;;;;;5103859;28;20024;-74
2020/12/30 08:04:39;;;;;;;70.85;30.58;;;9.00;85.30;;;;;;5104011;28;20467;-75
2020/12/30 08:07:10;;;;;;;89.03;29.80;;;9.10;85.10;;;;;;5095612;28;20479;-75
2020/12/30 08:09:40;;;;;;;87.35;32.60;;;9.10;84.90;;;;;;5094625;28;20034;-73
2020/12/30 08:12:07;;;;;;;76.00;31.13;;;9.20;84.90;;;;;;5099915;28;20485;-74
2020/12/30 08:14:35;;;;;;;75.57;30.50;;;9.20;85.00;;;;;;5111676;28;20058;-75
2020/12/30 08:17:05;;;;;;;88.20;32.28;;;9.30;85.30;;;;;;5114878;28;20460;-76
2020/12/30 08:19:45;;;;;;;78.45;32.58;;;9.30;85.80;;;;;;5114858;28;20372;-73
2020/12/30 08:22:12;;;;;;;67.38;26.92;;;9.40;85.30;;;;;;5116219;28;20027;-73
2020/12/30 08:24:44;;;;;;;59.80;24.92;;;9.40;85.30;;;;;;5113705;28;20111;-73
2020/12/30 08:27:13;;;;;;;61.35;25.58;;;9.50;85.30;;;;;;5114320;28;20027;-73
2020/12/30 08:29:41;;;;;;;75.00;26.45;;;9.60;85.40;;;;;;5115906;28;20034;-75
2020/12/30 08:32:18;;;;;;;59.22;21.05;;;9.60;85.40;;;;;;5115851;28;20115;-74
2020/12/30 08:34:55;;;;;;;45.20;20.65;;;9.60;85.30;;;;;;5115450;28;20066;-74
2020/12/30 08:37:32;;;;;;;43.40;18.10;;;9.70;85.60;;;;;;5115622;28;20386;-73
2020/12/30 08:40:16;;;;;;;43.70;18.52;;;9.80;85.70;;;;;;5111390;28;20100;-74
2020/12/30 08:43:17;;;;;;;46.97;21.58;;;9.80;85.50;;;;;;5098997;28;20464;-73
2020/12/30 08:46:07;;;;;;;73.53;28.23;;;9.90;85.50;;;;;;5075348;28;20047;-73
2020/12/30 08:48:34;;;;;;;54.10;24.05;;;10.00;85.40;;;;;;5095488;28;20024;-74
2020/12/30 08:51:01;;;;;;;82.78;28.20;;;10.00;85.60;;;;;;5094819;28;20365;-74
2020/12/30 08:53:40;;;;;;;53.95;22.80;;;10.10;85.90;;;;;;5095588;28;20360;-73
2020/12/30 08:56:07;;;;;;;53.97;24.05;;;10.20;85.90;;;;;;5101370;28;20027;-73
2020/12/30 08:58:34;;;;;;;42.90;19.88;;;10.30;86.10;;;;;;5103976;28;20464;-74
2020/12/30 09:01:00;;;;;;;50.38;21.30;;;10.40;85.90;;;;;;5103451;28;20024;-75
2020/12/30 09:03:29;;;;;;;46.15;20.15;;;10.40;85.70;;;;;;5102507;28;20016;-75
2020/12/30 09:05:58;;;;;;;36.38;16.05;;;10.50;85.60;;;;;;5103873;28;20030;-75
2020/12/30 09:08:25;;;;;;;59.72;20.75;;;10.50;85.70;;;;;;5104509;28;20521;-75
2020/12/30 09:10:52;;;;;;;29.48;14.60;;;10.60;85.50;;;;;;5102778;28;20028;-76
2020/12/30 09:13:21;;;;;;;53.15;17.05;;;10.70;85.30;;;;;;5103391;28;20016;-73
2020/12/30 09:15:54;;;;;;;29.15;15.43;;;10.70;85.10;;;;;;5102766;28;20405;-75
2020/12/30 09:18:21;;;;;;;31.08;14.68;;;10.80;85.10;;;;;;5101765;28;20034;-75
2020/12/30 09:20:47;;;;;;;51.95;19.63;;;10.80;84.80;;;;;;5103404;28;20119;-75
2020/12/30 09:23:13;;;;;;;61.85;23.15;;;10.80;84.90;;;;;;5103144;28;20426;-75
2020/12/30 09:25:42;;;;;;;46.95;19.73;;;10.90;85.00;;;;;;5103127;28;20053;-75
2020/12/30 09:28:18;;;;;;;48.72;20.08;;;10.90;85.10;;;;;;5101336;28;20425;-76
2020/12/30 09:30:44;;;;;;;53.95;19.85;;;10.90;85.00;;;;;;5105288;28;20059;-75
2020/12/30 09:33:14;;;;;;;36.88;15.50;;;11.00;85.00;;;;;;5115147;28;20054;-76
2020/12/30 09:35:40;;;;;;;50.00;19.25;;;11.10;84.90;;;;;;5113306;28;20039;-76
2020/12/30 09:38:06;;;;;;;39.67;18.65;;;11.10;85.00;;;;;;5114772;28;20035;-75
2020/12/30 09:40:40;;;;;;;45.22;20.35;;;11.10;85.50;;;;;;5110131;28;20077;-75
2020/12/30 09:43:21;;;;;;;59.97;23.38;;;11.20;84.90;;;;;;5103784;28;20047;-75
2020/12/30 09:45:50;;;;;;;54.35;22.27;;;11.20;84.70;;;;;;5096438;28;20089;-76
2020/12/30 09:48:17;;;;;;;48.85;20.63;;;11.20;84.80;;;;;;5092918;28;20031;-76
2020/12/30 09:50:44;;;;;;;50.28;20.38;;;11.30;84.60;;;;;;5092720;28;20032;-76
2020/12/30 09:53:11;;;;;;;39.22;17.50;;;11.30;84.30;;;;;;5093861;28;20028;-76
2020/12/30 09:55:37;;;;;;;35.50;16.95;;;11.30;84.30;;;;;;5094165;28;20029;-75
2020/12/30 09:58:03;;;;;;;34.97;15.45;;;11.40;84.70;;;;;;5094078;28;20031;-75
2020/12/30 10:00:29;;;;;;;41.75;17.30;;;11.40;84.70;;;;;;5093535;28;20028;-76
2020/12/30 10:02:55;;;;;;;26.92;14.77;;;11.50;84.60;;;;;;5093908;28;20032;-75
2020/12/30 10:05:21;;;;;;;35.35;16.70;;;11.50;84.70;;;;;;5093681;28;20361;-75
2020/12/30 10:07:47;;;;;;;33.95;15.30;;;11.60;84.60;;;;;;5095716;28;20368;-78
2020/12/30 10:10:13;;;;;;;26.88;13.45;;;11.70;84.50;;;;;;5098542;28;20066;-75
2020/12/30 10:12:40;;;;;;;24.45;13.52;;;11.70;84.30;;;;;;5091692;28;20020;-74
2020/12/30 10:15:07;;;;;;;18.63;10.52;;;11.70;84.10;;;;;;5092554;28;20122;-75
2020/12/30 10:17:34;;;;;;;19.13;11.35;;;11.80;84.00;;;;;;5092472;28;20027;-75
2020/12/30 10:20:00;;;;;;;20.17;11.70;;;11.90;84.20;;;;;;5093298;28;20128;-76
2020/12/30 10:22:26;;;;;;;19.83;11.93;;;11.90;84.30;;;;;;5093930;28;20056;-74
2020/12/30 10:24:52;;;;;;;20.67;12.05;;;12.00;84.30;;;;;;5093650;28;20071;-76
2020/12/30 10:27:19;;;;;;;24.33;13.70;;;12.10;84.20;;;;;;5092238;28;20375;-75
2020/12/30 10:29:45;;;;;;;20.27;12.02;;;12.20;84.10;;;;;;5093231;28;20024;-73
2020/12/30 10:32:13;;;;;;;23.27;13.48;;;12.30;84.20;;;;;;5091987;28;20055;-75
2020/12/30 10:34:39;;;;;;;21.58;12.27;;;12.40;83.70;;;;;;5092968;28;20050;-75
2020/12/30 10:37:06;;;;;;;18.63;12.80;;;12.40;83.60;;;;;;5093718;28;20032;-74
2020/12/30 10:39:33;;;;;;;24.52;13.77;;;12.60;84.40;;;;;;5092214;28;20024;-74
2020/12/30 10:42:01;;;;;;;22.88;13.68;;;12.70;84.00;;;;;;5093027;28;20028;-75
2020/12/30 10:44:32;;;;;;;23.67;12.43;;;12.80;82.80;;;;;;5093385;28;20023;-74
2020/12/30 10:46:58;;;;;;;19.48;12.10;;;12.80;82.30;;;;;;5093410;28;20023;-74
2020/12/30 10:49:24;;;;;;;21.90;11.38;;;12.80;82.00;;;;;;5092677;28;20024;-74
2020/12/30 10:51:51;;;;;;;19.35;10.93;;;12.80;81.90;;;;;;5093073;28;20110;-75
2020/12/30 10:54:17;;;;;;;17.83;10.20;;;12.70;81.50;;;;;;5093699;28;20028;-75
2020/12/30 10:56:54;;;;;;;15.88;10.00;;;12.70;81.50;;;;;;5092745;28;20365;-76
2020/12/30 10:59:20;;;;;;;18.85;10.32;;;12.60;81.50;;;;;;5093037;28;20032;-75
2020/12/30 11:01:53;;;;;;;20.75;10.43;;;12.60;81.80;;;;;;5093621;28;20472;-73
2020/12/30 11:04:22;;;;;;;20.73;10.57;;;12.60;82.00;;;;;;5093128;28;20040;-74
2020/12/30 11:06:47;;;;;;;18.02;9.88;;;12.60;82.50;;;;;;5091620;28;20020;-78
2020/12/30 11:09:14;;;;;;;20.55;11.32;;;12.70;82.60;;;;;;5093458;28;20047;-74
2020/12/30 11:11:40;;;;;;;17.90;10.85;;;12.80;82.30;;;;;;5091444;28;20040;-74
2020/12/30 11:14:06;;;;;;;16.90;10.65;;;12.90;81.90;;;;;;5092888;28;20509;-75
2020/12/30 11:16:31;;;;;;;24.80;11.77;;;13.00;81.80;;;;;;5091996;28;20027;-75
2020/12/30 11:18:58;;;;;;;19.95;11.18;;;13.00;81.50;;;;;;5092766;28;20345;-74
2020/12/30 11:21:24;;;;;;;19.27;10.40;;;13.00;81.30;;;;;;5093959;28;20031;-75
2020/12/30 11:23:50;;;;;;;15.82;9.02;;;13.00;80.70;;;;;;5092059;28;20460;-75
2020/12/30 11:26:15;;;;;;;24.50;11.18;;;13.00;80.60;;;;;;5093194;28;20111;-77
2020/12/30 11:28:41;;;;;;;20.77;11.07;;;13.00;80.40;;;;;;5107859;28;20059;-75
2020/12/30 11:31:07;;;;;;;21.58;10.85;;;12.80;79.90;;;;;;5112733;28;20042;-74
2020/12/30 11:33:34;;;;;;;20.13;10.00;;;12.70;80.00;;;;;;5112895;28;20455;-76
2020/12/30 11:36:00;;;;;;;25.58;11.48;;;12.70;80.20;;;;;;5111931;28;20402;-76
2020/12/30 11:38:27;;;;;;;18.25;10.45;;;12.60;80.10;;;;;;5095324;28;20024;-76
2020/12/30 11:40:52;;;;;;;19.67;10.88;;;12.60;80.40;;;;;;5112976;28;20047;-76
2020/12/30 11:43:18;;;;;;;20.38;10.80;;;12.50;80.50;;;;;;5112043;28;20108;-74
2020/12/30 11:45:44;;;;;;;19.85;10.13;;;12.40;80.50;;;;;;5111812;28;20216;-76
2020/12/30 11:48:10;;;;;;;15.68;9.45;;;12.40;80.50;;;;;;5113020;28;20020;-76
2020/12/30 11:50:36;;;;;;;16.40;10.18;;;12.30;80.60;;;;;;5113818;28;20036;-75
2020/12/30 11:53:02;;;;;;;17.05;10.82;;;12.30;81.10;;;;;;5117150;28;20366;-75
2020/12/30 11:55:28;;;;;;;18.67;9.98;;;12.30;81.20;;;;;;5116358;28;20020;-75
2020/12/30 11:57:54;;;;;;;22.02;11.02;;;12.30;81.30;;;;;;5116569;28;20401;-77
2020/12/30 12:00:20;;;;;;;18.40;9.65;;;12.20;81.20;;;;;;5116688;28;20107;-75
2020/12/30 12:02:46;;;;;;;21.13;11.02;;;12.20;81.30;;;;;;5116099;28;20468;-75
2020/12/30 12:05:12;;;;;;;19.85;11.02;;;12.20;81.70;;;;;;5115181;28;20055;-75
2020/12/30 12:07:39;;;;;;;19.83;11.18;;;12.20;81.90;;;;;;5116029;28;20103;-75
2020/12/30 12:13:26;;;;;;;21.13;9.80;;;12.20;81.80;;;;;;5115752;28;20063;-75
2020/12/30 12:15:52;;;;;;;22.65;11.10;;;12.10;81.80;;;;;;5116240;28;20024;-76
2020/12/30 12:18:18;;;;;;;22.10;10.88;;;12.20;82.40;;;;;;5116371;28;20451;-75
2020/12/30 12:20:43;;;;;;;23.95;12.02;;;12.10;82.10;;;;;;5116463;28;20039;-74
2020/12/30 12:23:09;;;;;;;25.33;11.77;;;12.10;82.10;;;;;;5116074;28;20027;-74
2020/12/30 12:25:35;;;;;;;20.35;12.13;;;12.10;82.30;;;;;;5116916;28;20043;-74
2020/12/30 12:28:00;;;;;;;23.58;12.43;;;12.10;82.40;;;;;;5115792;28;20098;-75
2020/12/30 12:30:26;;;;;;;25.05;11.73;;;12.10;82.50;;;;;;5114736;28;20049;-76
2020/12/30 12:32:52;;;;;;;36.55;17.67;;;12.10;82.70;;;;;;5116142;28;20086;-77
2020/12/30 12:35:18;;;;;;;36.58;18.15;;;12.10;82.70;;;;;;5115806;28;20019;-74
2020/12/30 12:38:06;;;;;;;29.65;15.70;;;12.10;82.70;;;;;;5115915;28;20026;-75
2020/12/30 12:40:32;;;;;;;27.40;14.15;;;12.10;82.90;;;;;;5116161;28;20031;-75